createdAt,value
2018-06-19T00:01:17.921Z,101299.00
2018-06-19T00:03:48.011Z,101298.00
2018-06-19T00:06:18.114Z,101300.00
2018-06-19T00:08:48.199Z,101301.00
2018-06-19T00:11:18.215Z,101292.00
2018-06-19T00:13:48.530Z,101301.00
2018-06-19T00:16:18.673Z,101297.00
2018-06-19T00:18:53.981Z,101294.00
2018-06-19T00:21:55.217Z,101307.00
2018-06-19T00:24:25.635Z,101301.00
2018-06-19T00:26:55.734Z,101299.00
2018-06-19T00:29:25.885Z,101299.00
2018-06-19T00:31:55.942Z,101299.00
2018-06-19T00:34:26.346Z,101304.00
2018-06-19T00:36:56.336Z,101306.00
2018-06-19T00:39:26.351Z,101301.00
2018-06-19T00:41:56.426Z,101308.00
2018-06-19T00:44:26.197Z,101308.00
2018-06-19T00:46:56.876Z,101306.00
2018-06-19T00:49:26.994Z,101304.00
2018-06-19T00:51:57.533Z,101301.00
2018-06-19T00:54:27.815Z,101304.00
2018-06-19T00:56:59.970Z,101317.00
2018-06-19T00:59:30.257Z,101316.00
2018-06-19T01:02:01.510Z,101317.00
2018-06-19T01:04:31.576Z,101313.00
2018-06-19T01:07:01.650Z,101317.00
2018-06-19T01:09:31.391Z,101313.00
2018-06-19T01:12:02.335Z,101277.00
2018-06-19T01:14:33.252Z,101307.00
2018-06-19T01:20:26.766Z,101309.00
2018-06-19T01:22:56.850Z,101315.00
2018-06-19T01:25:26.736Z,101316.00
2018-06-19T01:27:56.891Z,101314.00
2018-06-19T01:30:26.746Z,101311.00
2018-06-19T01:32:56.657Z,101315.00
2018-06-19T01:35:26.550Z,101312.00
2018-06-19T01:37:56.470Z,101307.00
2018-06-19T01:40:26.511Z,101302.00
2018-06-19T01:42:56.533Z,101304.00
2018-06-19T01:45:26.150Z,101310.00
2018-06-19T01:47:56.140Z,101310.00
2018-06-19T01:50:26.262Z,101306.00
2018-06-19T01:52:56.191Z,101307.00
2018-06-19T01:55:26.190Z,101300.00
2018-06-19T01:57:56.265Z,101298.00
2018-06-19T02:00:26.367Z,101300.00
2018-06-19T02:02:56.607Z,101300.00
2018-06-19T02:05:26.910Z,101301.00
2018-06-19T02:07:57.157Z,101304.00
2018-06-19T02:10:27.572Z,101301.00
2018-06-19T02:12:57.487Z,101308.00
2018-06-19T02:15:27.659Z,101303.00
2018-06-19T02:17:57.536Z,101300.00
2018-06-19T02:20:28.045Z,101304.00
2018-06-19T02:22:57.925Z,101302.00
2018-06-19T02:25:28.160Z,101308.00
2018-06-19T02:27:57.794Z,101315.00
2018-06-19T02:30:27.915Z,101308.00
2018-06-19T02:32:58.120Z,101318.00
2018-06-19T02:35:28.166Z,101316.00
2018-06-19T02:37:58.167Z,101317.00
2018-06-19T02:40:27.969Z,101321.00
2018-06-19T02:42:57.956Z,101325.00
2018-06-19T02:45:28.128Z,101327.00
2018-06-19T02:47:58.345Z,101323.00
2018-06-19T02:50:28.495Z,101329.00
2018-06-19T02:52:58.786Z,101331.00
2018-06-19T02:55:29.062Z,101335.00
2018-06-19T02:57:59.045Z,101338.00
2018-06-19T03:00:29.166Z,101340.00
2018-06-19T03:02:59.331Z,101338.00
2018-06-19T03:05:29.662Z,101337.00
2018-06-19T03:07:59.850Z,101333.00
2018-06-19T03:10:29.937Z,101335.00
2018-06-19T03:13:00.281Z,101335.00
2018-06-19T03:15:30.417Z,101333.00
2018-06-19T03:18:00.513Z,101331.00
2018-06-19T03:20:31.028Z,101337.00
2018-06-19T03:23:00.965Z,101341.00
2018-06-19T03:25:31.121Z,101334.00
2018-06-19T03:28:01.221Z,101343.00
2018-06-19T03:30:31.000Z,101344.00
2018-06-19T03:33:01.023Z,101342.00
2018-06-19T03:35:31.095Z,101338.00
2018-06-19T03:38:01.339Z,101339.00
2018-06-19T03:40:31.130Z,101342.00
2018-06-19T03:43:01.050Z,101351.00
2018-06-19T03:45:30.882Z,101353.00
2018-06-19T03:48:00.977Z,101363.00
2018-06-19T03:50:31.160Z,101364.00
2018-06-19T03:53:01.296Z,101365.00
2018-06-19T03:55:31.171Z,101364.00
2018-06-19T03:58:00.915Z,101372.00
2018-06-19T04:00:31.102Z,101370.00
2018-06-19T04:03:01.096Z,101373.00
2018-06-19T04:05:31.310Z,101378.00
2018-06-19T04:08:01.262Z,101380.00
2018-06-19T04:10:31.120Z,101382.00
2018-06-19T04:13:01.265Z,101380.00
2018-06-19T04:15:31.400Z,101387.00
2018-06-19T04:18:01.516Z,101390.00
2018-06-19T04:20:31.637Z,101384.00
2018-06-19T04:23:01.834Z,101382.00
2018-06-19T04:25:32.014Z,101387.00
2018-06-19T04:28:02.133Z,101384.00
2018-06-19T04:30:32.301Z,101395.00
2018-06-19T04:33:02.703Z,101392.00
2018-06-19T04:35:32.701Z,101393.00
2018-06-19T04:38:02.565Z,101393.00
2018-06-19T04:40:33.434Z,101402.00
2018-06-19T04:43:04.247Z,101399.00
2018-06-19T04:45:35.405Z,101395.00
2018-06-19T04:50:24.490Z,101396.00
2018-06-19T04:52:54.435Z,101391.00
2018-06-19T04:55:24.570Z,101382.00
2018-06-19T04:57:54.806Z,101397.00
2018-06-19T05:00:25.148Z,101397.00
2018-06-19T05:02:55.255Z,101402.00
2018-06-19T05:05:25.522Z,101399.00
2018-06-19T05:07:55.414Z,101403.00
2018-06-19T05:10:25.721Z,101401.00
2018-06-19T05:12:56.009Z,101408.00
2018-06-19T05:15:26.019Z,101398.00
2018-06-19T05:17:56.213Z,101402.00
2018-06-19T05:20:26.468Z,101402.00
2018-06-19T05:22:56.169Z,101412.00
2018-06-19T05:25:26.042Z,101423.00
2018-06-19T05:27:56.277Z,101412.00
2018-06-19T05:30:26.174Z,101407.00
2018-06-19T05:32:56.466Z,101419.00
2018-06-19T05:35:27.556Z,101421.00
2018-06-19T05:40:26.662Z,101419.00
2018-06-19T05:42:56.656Z,101432.00
2018-06-19T05:45:26.738Z,101426.00
2018-06-19T05:47:56.916Z,101425.00
2018-06-19T05:50:26.920Z,101431.00
2018-06-19T05:52:57.126Z,101430.00
2018-06-19T05:55:26.986Z,101428.00
2018-06-19T05:57:56.962Z,101429.00
2018-06-19T06:00:27.038Z,101423.00
2018-06-19T06:02:56.937Z,101431.00
2018-06-19T06:05:27.197Z,101431.00
2018-06-19T06:07:57.366Z,101434.00
2018-06-19T06:10:27.614Z,101443.00
2018-06-19T06:12:57.671Z,101444.00
2018-06-19T06:15:27.860Z,101451.00
2018-06-19T06:17:58.147Z,101454.00
2018-06-19T06:20:28.369Z,101458.00
2018-06-19T06:22:58.567Z,101466.00
2018-06-19T06:25:28.768Z,101466.00
2018-06-19T06:27:58.933Z,101464.00
2018-06-19T06:30:29.001Z,101467.00
2018-06-19T06:32:59.172Z,101475.00
2018-06-19T06:35:29.334Z,101467.00
2018-06-19T06:37:59.326Z,101470.00
2018-06-19T06:40:29.393Z,101474.00
2018-06-19T06:42:59.363Z,101470.00
2018-06-19T06:45:29.283Z,101468.00
2018-06-19T06:47:59.016Z,101481.00
2018-06-19T06:50:29.749Z,101479.00
2018-06-19T06:53:00.213Z,101487.00
2018-06-19T06:55:30.267Z,101484.00
2018-06-19T06:58:00.284Z,101486.00
2018-06-19T07:00:30.211Z,101489.00
2018-06-19T07:02:59.702Z,101486.00
2018-06-19T07:05:29.897Z,101483.00
2018-06-19T07:08:00.127Z,101492.00
2018-06-19T07:10:30.343Z,101488.00
2018-06-19T07:13:00.557Z,101483.00
2018-06-19T07:15:30.700Z,101490.00
2018-06-19T07:18:00.643Z,101491.00
2018-06-19T07:20:30.992Z,101488.00
2018-06-19T07:23:01.313Z,101490.00
2018-06-19T07:25:31.592Z,101496.00
2018-06-19T07:28:01.567Z,101498.00
2018-06-19T07:30:31.806Z,101503.00
2018-06-19T07:33:01.897Z,101502.00
2018-06-19T07:35:32.208Z,101498.00
2018-06-19T07:38:01.968Z,101495.00
2018-06-19T07:40:31.716Z,101497.00
2018-06-19T07:43:03.691Z,101501.00
2018-06-19T07:45:34.622Z,101505.00
2018-06-19T07:48:04.703Z,101507.00
2018-06-19T07:50:34.617Z,101513.00
2018-06-19T07:53:04.613Z,101523.00
2018-06-19T07:55:34.984Z,101514.00
2018-06-19T07:58:05.317Z,101515.00
2018-06-19T08:00:35.158Z,101515.00
2018-06-19T08:03:05.390Z,101518.00
2018-06-19T08:05:35.582Z,101517.00
2018-06-19T08:08:06.614Z,101523.00
2018-06-19T08:10:36.979Z,101523.00
2018-06-19T08:13:07.103Z,101533.00
2018-06-19T08:15:37.360Z,101535.00
2018-06-19T08:18:07.568Z,101534.00
2018-06-19T08:20:37.677Z,101539.00
2018-06-19T08:23:08.036Z,101543.00
2018-06-19T08:25:38.125Z,101537.00
2018-06-19T08:28:08.258Z,101544.00
2018-06-19T08:30:38.455Z,101548.00
2018-06-19T08:33:08.397Z,101548.00
2018-06-19T08:35:38.233Z,101551.00
2018-06-19T08:38:07.672Z,101549.00
2018-06-19T08:40:38.373Z,101552.00
2018-06-19T08:43:08.317Z,101548.00
2018-06-19T08:45:38.698Z,101553.00
2018-06-19T08:48:09.117Z,101555.00
2018-06-19T08:50:39.228Z,101550.00
2018-06-19T08:53:09.279Z,101557.00
2018-06-19T08:55:39.278Z,101559.00
2018-06-19T08:58:09.674Z,101558.00
2018-06-19T09:00:39.847Z,101557.00
2018-06-19T09:03:10.399Z,101558.00
2018-06-19T09:05:40.624Z,101554.00
2018-06-19T09:08:10.795Z,101563.00
2018-06-19T09:10:40.770Z,101566.00
2018-06-19T09:13:11.013Z,101564.00
2018-06-19T09:15:41.158Z,101569.00
2018-06-19T09:18:11.194Z,101576.00
2018-06-19T09:20:40.806Z,101571.00
2018-06-19T09:23:10.959Z,101567.00
2018-06-19T09:25:41.530Z,101568.00
2018-06-19T09:28:12.063Z,101571.00
2018-06-19T09:30:42.142Z,101569.00
2018-06-19T09:33:12.254Z,101568.00
2018-06-19T09:35:42.704Z,101566.00
2018-06-19T09:38:12.803Z,101571.00
2018-06-19T09:40:43.148Z,101573.00
2018-06-19T09:43:13.260Z,101579.00
2018-06-19T09:45:43.501Z,101572.00
2018-06-19T09:48:13.574Z,101570.00
2018-06-19T09:50:44.040Z,101551.00
2018-06-19T09:53:14.197Z,101570.00
2018-06-19T09:55:44.218Z,101571.00
2018-06-19T09:58:14.545Z,101564.00
2018-06-19T10:00:44.684Z,101570.00
2018-06-19T10:03:15.633Z,101565.00
2018-06-19T10:05:46.040Z,101569.00
2018-06-19T10:08:16.202Z,101567.00
2018-06-19T10:10:46.234Z,101573.00
2018-06-19T10:13:16.657Z,101573.00
2018-06-19T10:15:46.877Z,101573.00
2018-06-19T10:18:16.999Z,101578.00
2018-06-19T10:20:47.070Z,101579.00
2018-06-19T10:23:17.255Z,101580.00
2018-06-19T10:25:47.608Z,101578.00
2018-06-19T10:28:17.735Z,101578.00
2018-06-19T10:30:48.029Z,101587.00
2018-06-19T10:33:18.695Z,101572.00
2018-06-19T10:35:48.941Z,101573.00
2018-06-19T10:38:19.498Z,101571.00
2018-06-19T10:40:49.609Z,101579.00
2018-06-19T10:43:20.016Z,101579.00
2018-06-19T10:45:50.352Z,101590.00
2018-06-19T10:48:20.371Z,101594.00
2018-06-19T10:50:50.501Z,101586.00
2018-06-19T10:53:20.674Z,101582.00
2018-06-19T10:55:51.011Z,101584.00
2018-06-19T10:58:22.072Z,101596.00
2018-06-19T11:00:52.289Z,101592.00
2018-06-19T11:03:23.473Z,101596.00
2018-06-19T11:05:54.005Z,101589.00
2018-06-19T11:10:25.222Z,101593.00
2018-06-19T11:12:55.437Z,101598.00
2018-06-19T11:15:26.038Z,101600.00
2018-06-19T11:17:56.328Z,101592.00
2018-06-19T11:20:26.733Z,101588.00
2018-06-19T11:22:56.760Z,101589.00
2018-06-19T11:25:26.895Z,101595.00
2018-06-19T11:27:57.109Z,101596.00
2018-06-19T11:30:27.370Z,101590.00
2018-06-19T11:32:57.460Z,101590.00
2018-06-19T11:35:27.699Z,101588.00
2018-06-19T11:37:57.858Z,101596.00
2018-06-19T11:40:28.080Z,101590.00
2018-06-19T11:42:58.288Z,101590.00
2018-06-19T11:45:28.428Z,101587.00
2018-06-19T11:47:58.576Z,101584.00
2018-06-19T11:50:28.946Z,101589.00
2018-06-19T11:52:59.539Z,101590.00
2018-06-19T11:55:29.789Z,101587.00
2018-06-19T11:57:59.986Z,101585.00
2018-06-19T12:00:30.192Z,101583.00
2018-06-19T12:03:00.849Z,101584.00
2018-06-19T12:05:31.013Z,101582.00
2018-06-19T12:08:01.240Z,101591.00
2018-06-19T12:10:31.336Z,101576.00
2018-06-19T12:13:01.463Z,101571.00
2018-06-19T12:15:31.682Z,101570.00
2018-06-19T12:18:01.845Z,101566.00
2018-06-19T12:20:32.129Z,101558.00
2018-06-19T12:23:02.446Z,101557.00
2018-06-19T12:25:32.833Z,101561.00
2018-06-19T12:28:02.951Z,101578.00
2018-06-19T12:30:32.910Z,101568.00
2018-06-19T12:33:03.150Z,101564.00
2018-06-19T12:35:33.235Z,101566.00
2018-06-19T12:38:03.417Z,101574.00
2018-06-19T12:40:33.860Z,101566.00
2018-06-19T12:50:40.265Z,101570.00
2018-06-19T12:53:27.185Z,101570.00
2018-06-19T12:56:13.955Z,101578.00
2018-06-19T12:58:44.699Z,101581.00
2018-06-19T13:01:14.516Z,101580.00
2018-06-19T13:04:00.900Z,101580.00
2018-06-19T13:06:37.332Z,101579.00
2018-06-19T13:09:09.831Z,101579.00
2018-06-19T13:11:40.019Z,101573.00
2018-06-19T13:14:26.784Z,101581.00
2018-06-19T13:17:13.534Z,101575.00
2018-06-19T13:20:00.085Z,101576.00
2018-06-19T13:22:30.189Z,101583.00
2018-06-19T13:25:00.321Z,101580.00
2018-06-19T13:27:30.814Z,101580.00
2018-06-19T13:30:17.541Z,101578.00
2018-06-19T13:32:47.975Z,101578.00
2018-06-19T13:35:18.188Z,101573.00
2018-06-19T13:37:48.640Z,101569.00
2018-06-19T13:41:32.500Z,101565.00
2018-06-19T13:44:19.200Z,101566.00
2018-06-19T13:46:49.578Z,101568.00
2018-06-19T13:49:20.355Z,101572.00
2018-06-19T13:51:50.422Z,101566.00
2018-06-19T13:54:20.949Z,101567.00
2018-06-19T13:57:25.038Z,101567.00
2018-06-19T13:59:55.238Z,101566.00
2018-06-19T14:02:25.531Z,101563.00
2018-06-19T14:04:55.746Z,101557.00
2018-06-19T14:07:26.638Z,101559.00
2018-06-19T14:10:21.796Z,101560.00
2018-06-19T14:12:56.595Z,101561.00
2018-06-19T14:15:27.860Z,101558.00
2018-06-19T14:17:58.498Z,101566.00
2018-06-19T14:20:28.850Z,101559.00
2018-06-19T14:22:59.066Z,101563.00
2018-06-19T14:25:29.335Z,101564.00
2018-06-19T14:27:59.479Z,101558.00
2018-06-19T14:30:30.055Z,101561.00
2018-06-19T14:33:00.151Z,101561.00
2018-06-19T14:35:30.064Z,101566.00
2018-06-19T14:38:00.191Z,101568.00
2018-06-19T14:40:30.469Z,101565.00
2018-06-19T14:43:00.906Z,101564.00
2018-06-19T14:45:30.652Z,101565.00
2018-06-19T14:48:00.649Z,101558.00
2018-06-19T14:50:30.785Z,101561.00
2018-06-19T14:53:01.426Z,101561.00
2018-06-19T14:55:31.336Z,101560.00
2018-06-19T14:58:00.870Z,101562.00
2018-06-19T15:00:31.023Z,101562.00
2018-06-19T15:03:01.145Z,101563.00
2018-06-19T15:05:31.381Z,101568.00
2018-06-19T15:08:01.110Z,101559.00
2018-06-19T15:10:31.727Z,101560.00
2018-06-19T15:13:01.951Z,101561.00
2018-06-19T15:15:32.195Z,101562.00
2018-06-19T15:18:02.399Z,101561.00
2018-06-19T15:20:33.065Z,101553.00
2018-06-19T15:23:03.811Z,101553.00
2018-06-19T15:25:33.906Z,101555.00
2018-06-19T15:28:04.022Z,101557.00
2018-06-19T15:30:34.305Z,101556.00
2018-06-19T15:33:04.424Z,101553.00
2018-06-19T15:35:34.050Z,101551.00
2018-06-19T15:38:04.183Z,101555.00
2018-06-19T15:40:34.565Z,101552.00
2018-06-19T15:43:04.724Z,101557.00
2018-06-19T15:45:34.799Z,101551.00
2018-06-19T15:48:05.002Z,101549.00
2018-06-19T15:50:35.020Z,101548.00
2018-06-19T15:53:05.244Z,101543.00
2018-06-19T15:55:35.365Z,101542.00
2018-06-19T15:58:05.494Z,101537.00
2018-06-19T16:00:35.843Z,101541.00
2018-06-19T16:03:05.797Z,101546.00
2018-06-19T16:05:36.177Z,101545.00
2018-06-19T16:08:11.379Z,101544.00
2018-06-19T16:10:41.484Z,101542.00
2018-06-19T16:13:11.685Z,101538.00
2018-06-19T16:15:41.830Z,101540.00
2018-06-19T16:18:13.132Z,101543.00
2018-06-19T16:20:43.164Z,101538.00
2018-06-19T16:23:13.571Z,101539.00
2018-06-19T16:25:43.958Z,101543.00
2018-06-19T16:28:14.635Z,101540.00
2018-06-19T16:30:44.883Z,101540.00
2018-06-19T16:33:15.042Z,101541.00
2018-06-19T16:35:45.205Z,101544.00
2018-06-19T16:38:15.708Z,101537.00
2018-06-19T16:50:25.908Z,101539.00
2018-06-19T16:52:56.267Z,101543.00
2018-06-19T16:55:26.570Z,101538.00
2018-06-19T16:57:56.487Z,101542.00
2018-06-19T17:00:26.667Z,101536.00
2018-06-19T17:02:57.076Z,101536.00
2018-06-19T17:05:27.132Z,101539.00
2018-06-19T17:07:58.252Z,101541.00
2018-06-19T17:10:29.580Z,101541.00
2018-06-19T17:13:00.706Z,101544.00
2018-06-19T17:15:31.931Z,101538.00
2018-06-19T17:18:01.959Z,101538.00
2018-06-19T17:20:32.281Z,101542.00
2018-06-19T17:23:02.521Z,101536.00
2018-06-19T17:25:32.625Z,101540.00
2018-06-19T17:28:02.956Z,101541.00
2018-06-19T17:30:33.175Z,101540.00
2018-06-19T17:33:03.361Z,101539.00
2018-06-19T17:35:33.513Z,101539.00
2018-06-19T17:38:03.542Z,101537.00
2018-06-19T17:40:33.417Z,101533.00
2018-06-19T17:43:03.971Z,101536.00
2018-06-19T17:45:34.247Z,101536.00
2018-06-19T17:48:04.516Z,101535.00
2018-06-19T17:50:34.662Z,101534.00
2018-06-19T17:53:04.866Z,101537.00
2018-06-19T17:55:35.220Z,101534.00
2018-06-19T17:58:05.442Z,101536.00
2018-06-19T18:00:35.665Z,101538.00
2018-06-19T18:03:05.751Z,101537.00
2018-06-19T18:05:36.148Z,101533.00
2018-06-19T18:08:06.921Z,101535.00
2018-06-19T18:10:37.125Z,101534.00
2018-06-19T18:13:07.437Z,101535.00
2018-06-19T18:15:37.760Z,101530.00
2018-06-19T18:18:07.765Z,101529.00
2018-06-19T18:20:37.964Z,101530.00
2018-06-19T18:23:08.247Z,101533.00
2018-06-19T18:25:38.281Z,101529.00
2018-06-19T18:28:08.678Z,101534.00
2018-06-19T18:30:39.121Z,101530.00
2018-06-19T18:33:08.846Z,101529.00
2018-06-19T18:35:39.569Z,101529.00
2018-06-19T18:38:10.076Z,101526.00
2018-06-19T18:40:40.838Z,101522.00
2018-06-19T18:43:11.143Z,101523.00
2018-06-19T18:45:41.879Z,101523.00
2018-06-19T18:48:12.803Z,101525.00
2018-06-19T18:50:43.236Z,101525.00
2018-06-19T18:53:13.370Z,101531.00
2018-06-19T18:55:44.214Z,101527.00
2018-06-19T18:58:14.743Z,101531.00
2018-06-19T19:00:45.432Z,101534.00
2018-06-19T19:03:16.173Z,101535.00
2018-06-19T19:05:47.434Z,101534.00
2018-06-19T19:08:22.488Z,101532.00
2018-06-19T19:10:55.308Z,101531.00
2018-06-19T19:13:26.883Z,101532.00
2018-06-19T19:16:02.221Z,101536.00
2018-06-19T19:18:37.960Z,101531.00
2018-06-19T19:21:08.066Z,101532.00
2018-06-19T19:23:38.152Z,101530.00
2018-06-19T19:26:08.334Z,101535.00
2018-06-19T19:28:43.413Z,101529.00
2018-06-19T19:31:13.599Z,101528.00
2018-06-19T19:33:43.800Z,101537.00
2018-06-19T19:36:18.856Z,101534.00
2018-06-19T19:38:54.196Z,101539.00
2018-06-19T19:41:24.171Z,101541.00
2018-06-19T19:43:54.412Z,101542.00
2018-06-19T19:46:29.702Z,101541.00
2018-06-19T19:49:00.036Z,101547.00
2018-06-19T19:51:30.742Z,101547.00
2018-06-19T19:54:01.327Z,101553.00
2018-06-19T19:56:36.647Z,101554.00
2018-06-19T19:59:07.132Z,101554.00
2018-06-19T20:01:37.342Z,101556.00
2018-06-19T20:04:07.898Z,101558.00
2018-06-19T20:06:38.369Z,101568.00
2018-06-19T20:09:09.858Z,101568.00
2018-06-19T20:11:40.059Z,101569.00
2018-06-19T20:14:10.270Z,101575.00
2018-06-19T20:16:40.486Z,101580.00
2018-06-19T20:19:10.822Z,101579.00
2018-06-19T20:21:40.872Z,101584.00
2018-06-19T20:24:11.145Z,101578.00
2018-06-19T20:26:41.226Z,101581.00
2018-06-19T20:29:11.676Z,101577.00
2018-06-19T20:31:41.970Z,101581.00
2018-06-19T20:34:12.196Z,101579.00
2018-06-19T20:36:42.114Z,101586.00
2018-06-19T20:39:12.397Z,101581.00
2018-06-19T20:41:42.560Z,101586.00
2018-06-19T20:44:12.082Z,101587.00
2018-06-19T20:46:42.272Z,101578.00
2018-06-19T20:49:13.325Z,101585.00
2018-06-19T20:51:44.037Z,101584.00
2018-06-19T20:54:17.283Z,101582.00
2018-06-19T20:56:47.441Z,101580.00
2018-06-19T20:59:17.683Z,101589.00
2018-06-19T21:01:48.852Z,101586.00
2018-06-19T21:04:20.036Z,101587.00
2018-06-19T21:06:51.279Z,101591.00
2018-06-19T21:09:22.393Z,101588.00
2018-06-19T21:11:53.527Z,101590.00
2018-06-19T21:14:23.962Z,101582.00
2018-06-19T21:16:54.011Z,101581.00
2018-06-19T21:19:24.200Z,101586.00
2018-06-19T21:21:54.235Z,101587.00
2018-06-19T21:24:24.577Z,101589.00
2018-06-19T21:26:54.578Z,101586.00
2018-06-19T21:29:24.643Z,101585.00
2018-06-19T21:31:54.360Z,101587.00
2018-06-19T21:34:24.423Z,101589.00
2018-06-19T21:36:54.573Z,101582.00
2018-06-19T21:39:24.921Z,101576.00
2018-06-19T21:41:55.072Z,101580.00
2018-06-19T21:44:25.053Z,101578.00
2018-06-19T21:46:55.473Z,101581.00
2018-06-19T21:49:25.637Z,101578.00
2018-06-19T21:51:55.827Z,101583.00
2018-06-19T21:54:26.141Z,101586.00
2018-06-19T21:56:56.212Z,101579.00
2018-06-19T21:59:26.438Z,101579.00
2018-06-19T22:01:56.516Z,101575.00
2018-06-19T22:04:26.499Z,101572.00
2018-06-19T22:06:56.904Z,101568.00
2018-06-19T22:09:27.098Z,101568.00
2018-06-19T22:11:57.297Z,101573.00
2018-06-19T22:14:27.486Z,101567.00
2018-06-19T22:16:57.842Z,101564.00
2018-06-19T22:19:27.903Z,101566.00
2018-06-19T22:21:58.011Z,101570.00
2018-06-19T22:24:28.173Z,101568.00
2018-06-19T22:26:58.487Z,101573.00
2018-06-19T22:29:28.566Z,101571.00
2018-06-19T22:31:58.934Z,101570.00
2018-06-19T22:34:29.274Z,101570.00
2018-06-19T22:36:59.393Z,101573.00
2018-06-19T22:39:29.408Z,101573.00
2018-06-19T22:41:59.716Z,101571.00
2018-06-19T22:44:29.925Z,101577.00
2018-06-19T22:47:00.058Z,101575.00
2018-06-19T22:49:30.273Z,101574.00
2018-06-19T22:52:00.348Z,101570.00
2018-06-19T22:54:30.537Z,101569.00
2018-06-19T22:57:00.842Z,101571.00
2018-06-19T22:59:30.833Z,101567.00
2018-06-19T23:02:01.129Z,101566.00
2018-06-19T23:04:31.252Z,101568.00
2018-06-19T23:07:01.530Z,101567.00
2018-06-19T23:09:31.732Z,101565.00
2018-06-19T23:12:02.015Z,101567.00
2018-06-19T23:14:32.124Z,101561.00
2018-06-19T23:17:02.374Z,101559.00
2018-06-19T23:19:32.557Z,101564.00
2018-06-19T23:22:02.644Z,101566.00
2018-06-19T23:24:32.934Z,101568.00
2018-06-19T23:27:02.888Z,101569.00
2018-06-19T23:29:33.335Z,101564.00
2018-06-19T23:32:03.510Z,101564.00
2018-06-19T23:34:33.651Z,101560.00
2018-06-19T23:37:04.049Z,101555.00
2018-06-19T23:39:37.127Z,101555.00
2018-06-19T23:42:07.248Z,101560.00
2018-06-19T23:44:38.107Z,101559.00
2018-06-19T23:47:08.514Z,101559.00
2018-06-19T23:49:38.393Z,101554.00
2018-06-19T23:52:08.969Z,101552.00
2018-06-19T23:54:39.426Z,101553.00
2018-06-19T23:57:09.420Z,101550.00
2018-06-19T23:59:39.595Z,101550.00
